Time;durP1;ratioP1;P1;durP2;ratioP2;P2;SDS_P1;SDS_P2;PMS_P1;PMS_P2;Temp;Humidity;BMP_temperature;BMP_pressure;BME280_temperature;BME280_humidity;BME280_pressure;Samples;Min_cycle;Max_cycle;Signal;HPM_P1;HPM_P2
2021/08/01 00:00:58;;;;;;;7.68;3.90;;;;;;;19.20;61.05;99153.97;2181047;41;20040;-82
2021/08/01 00:02:29;;;;;;;9.38;3.33;;;;;;;19.16;61.22;99151.72;2180994;40;20059;-83
2021/08/01 00:04:01;;;;;;;12.15;4.15;;;;;;;19.13;61.27;99149.47;2180681;41;20037;-84
2021/08/01 00:05:32;;;;;;;9.07;4.32;;;;;;;19.09;61.60;99152.84;2180800;41;20037;-83
2021/08/01 00:07:04;;;;;;;12.05;5.05;;;;;;;19.06;62.01;99158.69;2180888;41;20039;-82
2021/08/01 00:08:40;;;;;;;8.00;3.63;;;;;;;19.01;61.89;99167.47;2180979;41;20039;-81
2021/08/01 00:10:12;;;;;;;6.97;3.67;;;;;;;18.98;62.64;99166.03;2181197;41;20036;-83
2021/08/01 00:11:43;;;;;;;7.60;3.53;;;;;;;18.96;62.42;99164.63;2181061;41;20052;-81
2021/08/01 00:13:15;;;;;;;9.65;3.70;;;;;;;18.92;62.66;99147.97;2180723;40;20324;-83
2021/08/01 00:14:47;;;;;;;9.25;3.15;;;;;;;18.88;62.99;99157.56;2181060;41;20436;-84
2021/08/01 00:16:20;;;;;;;8.85;3.95;;;;;;;18.82;62.93;99156.56;2180758;41;20032;-86
2021/08/01 00:17:51;;;;;;;9.57;3.72;;;;;;;18.77;63.25;99156.41;2180604;41;20401;-83
2021/08/01 00:19:23;;;;;;;11.65;4.30;;;;;;;18.76;63.37;99154.75;2180335;41;20040;-82
2021/08/01 00:20:55;;;;;;;8.32;4.13;;;;;;;18.73;63.40;99152.47;2180795;41;20044;-83
2021/08/01 00:22:27;;;;;;;10.88;4.43;;;;;;;18.70;64.20;99147.50;2180588;40;20037;-83
2021/08/01 00:23:59;;;;;;;8.48;3.22;;;;;;;18.69;64.05;99154.78;2181080;41;20028;-82
2021/08/01 00:25:30;;;;;;;7.35;3.20;;;;;;;18.71;63.92;99146.44;2180953;41;20047;-83
2021/08/01 00:27:01;;;;;;;7.60;3.83;;;;;;;18.76;64.12;99152.03;2180738;41;20032;-83
2021/08/01 00:28:33;;;;;;;10.30;3.53;;;;;;;18.79;63.91;99148.91;2180726;41;20044;-83
2021/08/01 00:30:08;;;;;;;8.55;3.35;;;;;;;18.82;63.88;99145.72;2180980;41;20033;-83
2021/08/01 00:31:40;;;;;;;6.05;3.25;;;;;;;18.81;64.13;99146.78;2180634;41;20037;-82
2021/08/01 00:33:12;;;;;;;11.73;4.00;;;;;;;18.77;64.49;99150.16;2180507;40;20055;-82
2021/08/01 00:34:43;;;;;;;9.02;3.50;;;;;;;18.75;64.97;99149.56;2180712;41;20063;-84
2021/08/01 00:36:14;;;;;;;6.70;3.15;;;;;;;18.73;65.28;99144.34;2180368;41;20048;-84
2021/08/01 00:37:45;;;;;;;7.47;3.40;;;;;;;18.77;65.44;99151.00;2180497;41;20051;-83
2021/08/01 00:39:17;;;;;;;7.28;3.10;;;;;;;18.83;65.05;99149.28;2181145;41;20352;-83
2021/08/01 00:40:49;;;;;;;8.32;3.53;;;;;;;18.90;64.86;99150.03;2181446;41;20040;-84
2021/08/01 00:42:20;;;;;;;6.63;3.40;;;;;;;18.93;64.63;99133.41;2181180;40;20040;-83
2021/08/01 00:43:52;;;;;;;11.50;3.65;;;;;;;18.94;64.55;99136.94;2181436;41;20043;-83
2021/08/01 00:45:23;;;;;;;7.95;3.40;;;;;;;18.92;64.65;99137.13;2180967;41;20028;-85
2021/08/01 00:46:56;;;;;;;7.90;4.07;;;;;;;18.91;65.03;99121.94;2181322;41;20044;-83
2021/08/01 00:48:27;;;;;;;10.20;3.78;;;;;;;18.87;65.08;99126.13;2180835;41;20036;-82
2021/08/01 00:50:05;;;;;;;9.05;3.65;;;;;;;18.78;65.43;99124.72;2180689;41;20041;-82
2021/08/01 00:51:37;;;;;;;10.40;3.97;;;;;;;18.67;65.33;99129.00;2180757;41;20036;-83
2021/08/01 00:53:09;;;;;;;13.43;4.05;;;;;;;18.62;65.64;99120.69;2180397;40;20043;-83
2021/08/01 00:54:41;;;;;;;8.13;3.60;;;;;;;18.56;65.28;99125.13;2180641;41;20040;-82
2021/08/01 00:56:13;;;;;;;9.07;3.85;;;;;;;18.52;65.29;99138.25;2180416;41;20040;-84
2021/08/01 00:57:43;;;;;;;9.25;3.88;;;;;;;18.48;65.35;99123.50;2180635;41;20036;-83
2021/08/01 00:59:15;;;;;;;7.88;3.50;;;;;;;18.46;65.72;99128.31;2180412;41;20056;-83
2021/08/01 01:02:44;;;;;;;7.45;3.05;;;;;;;18.41;65.83;99136.28;2180495;40;20036;-83
2021/08/01 01:04:24;;;;;;;6.80;3.10;;;;;;;18.39;65.86;99133.75;2181405;41;20533;-83
2021/08/01 01:06:02;;;;;;;7.60;4.28;;;;;;;18.38;66.15;99131.28;2180649;41;20420;-82
2021/08/01 01:07:39;;;;;;;8.45;4.40;;;;;;;18.35;66.53;99137.13;2180660;41;20317;-82
2021/08/01 01:09:17;;;;;;;8.82;4.38;;;;;;;18.32;66.47;99132.97;2180528;41;20047;-83
2021/08/01 01:10:55;;;;;;;9.98;4.47;;;;;;;18.31;66.57;99133.22;2180485;41;20429;-83
2021/08/01 01:12:33;;;;;;;6.38;3.88;;;;;;;18.30;67.07;99126.94;2181007;40;20051;-83
2021/08/01 01:14:10;;;;;;;7.30;4.00;;;;;;;18.30;67.31;99132.38;2180655;41;20041;-82
2021/08/01 01:15:45;;;;;;;8.43;3.97;;;;;;;18.30;67.29;99140.47;2181092;41;20052;-82
2021/08/01 01:17:23;;;;;;;10.90;4.57;;;;;;;18.32;68.12;99141.09;2180997;41;20032;-83
2021/08/01 01:19:00;;;;;;;10.05;4.63;;;;;;;18.35;68.10;99154.19;2180617;41;20051;-83
2021/08/01 01:20:56;;;;;;;11.13;5.63;;;;;;;18.37;68.08;99156.69;2181134;41;20277;-85
2021/08/01 01:22:37;;;;;;;12.80;5.13;;;;;;;18.36;68.33;99152.31;2165883;40;20047;-82
2021/08/01 01:24:15;;;;;;;8.27;4.45;;;;;;;18.37;68.20;99152.09;2180469;41;20044;-83
2021/08/01 01:25:53;;;;;;;6.63;3.75;;;;;;;18.42;68.63;99143.31;2180549;41;20036;-84
2021/08/01 01:27:31;;;;;;;7.25;4.03;;;;;;;18.48;68.32;99144.31;2180339;40;20040;-82
2021/08/01 01:29:16;;;;;;;6.65;4.15;;;;;;;18.52;67.90;99137.44;2180156;41;20039;-83
2021/08/01 01:30:52;;;;;;;5.50;3.33;;;;;;;18.58;67.30;99141.97;2180180;41;20135;-82
2021/08/01 01:32:27;;;;;;;6.05;3.25;;;;;;;18.61;67.15;99140.72;2180335;40;20043;-84
2021/08/01 01:34:05;;;;;;;5.45;3.33;;;;;;;18.68;67.30;99144.19;2179826;41;20064;-84
2021/08/01 01:35:40;;;;;;;6.00;3.60;;;;;;;18.73;67.05;99143.53;2180500;41;20405;-84
2021/08/01 01:37:14;;;;;;;7.93;3.65;;;;;;;18.75;66.75;99139.53;2180517;41;20043;-83
2021/08/01 01:38:46;;;;;;;6.68;3.38;;;;;;;18.77;66.83;99140.16;2180395;41;20413;-82
2021/08/01 01:40:20;;;;;;;5.70;2.90;;;;;;;18.78;66.33;99141.81;2180368;41;20032;-82
2021/08/01 01:41:51;;;;;;;6.95;3.38;;;;;;;18.82;66.58;99143.03;2180454;41;20051;-84
2021/08/01 01:43:24;;;;;;;6.03;3.95;;;;;;;18.84;66.41;99146.34;2178379;40;20044;-81
2021/08/01 01:44:57;;;;;;;5.50;3.38;;;;;;;18.85;66.82;99142.59;2179154;41;20036;-86
2021/08/01 01:46:28;;;;;;;6.68;2.95;;;;;;;18.85;66.80;99136.31;2180262;41;20055;-83
2021/08/01 01:48:01;;;;;;;7.43;2.90;;;;;;;18.85;66.46;99139.88;2180251;41;20665;-83
2021/08/01 01:49:33;;;;;;;6.70;3.20;;;;;;;18.84;66.23;99138.22;2180577;41;20032;-84
2021/08/01 01:51:06;;;;;;;5.45;2.70;;;;;;;18.84;66.57;99140.94;2179762;41;20039;-84
2021/08/01 01:52:41;;;;;;;8.15;3.05;;;;;;;18.81;66.65;99133.25;2180490;40;20071;-83
2021/08/01 01:54:13;;;;;;;7.75;3.55;;;;;;;18.79;66.86;99135.38;2180321;41;20302;-83
2021/08/01 01:55:46;;;;;;;5.65;2.88;;;;;;;18.76;67.33;99138.50;2180830;41;20033;-83
2021/08/01 01:57:19;;;;;;;5.20;2.88;;;;;;;18.74;67.44;99135.19;2181010;41;20101;-84
2021/08/01 01:58:50;;;;;;;6.35;3.63;;;;;;;18.72;67.45;99131.84;2181428;41;20364;-83
2021/08/01 02:00:22;;;;;;;9.43;3.22;;;;;;;18.71;67.19;99133.75;2181470;41;20041;-84
2021/08/01 02:01:55;;;;;;;9.68;2.92;;;;;;;18.72;67.50;99134.56;2181592;41;20092;-83
2021/08/01 02:03:27;;;;;;;5.13;2.97;;;;;;;18.72;67.45;99126.44;2181721;40;20646;-83
2021/08/01 02:04:59;;;;;;;7.63;3.33;;;;;;;18.77;67.53;99126.63;2181510;41;20044;-82
2021/08/01 02:06:34;;;;;;;6.40;3.15;;;;;;;18.77;67.90;99132.03;2182173;41;20039;-83
2021/08/01 02:08:06;;;;;;;7.43;3.20;;;;;;;18.74;67.79;99127.06;2182069;41;20044;-83
2021/08/01 02:09:48;;;;;;;5.72;3.10;;;;;;;18.64;67.52;99130.28;2182227;41;20041;-82
2021/08/01 02:11:24;;;;;;;7.68;3.28;;;;;;;18.52;67.76;99137.44;2181641;41;20393;-82
2021/08/01 02:12:58;;;;;;;7.93;3.60;;;;;;;18.46;68.02;99132.91;2181340;40;20077;-83
2021/08/01 02:14:32;;;;;;;5.45;2.97;;;;;;;18.47;68.24;99135.38;2179882;41;20405;-83
2021/08/01 02:16:06;;;;;;;6.63;3.20;;;;;;;18.46;68.43;99133.72;2180966;41;20033;-84
2021/08/01 02:17:43;;;;;;;7.10;3.30;;;;;;;18.44;68.47;99130.41;2182451;41;20037;-82
2021/08/01 02:19:16;;;;;;;9.63;4.40;;;;;;;18.41;68.79;99130.84;2182501;40;20036;-82
2021/08/01 02:20:52;;;;;;;6.97;3.92;;;;;;;18.38;68.71;99126.69;2181845;41;20293;-82
2021/08/01 02:22:24;;;;;;;8.30;3.53;;;;;;;18.32;69.18;99126.75;2182150;40;20028;-82
2021/08/01 02:24:00;;;;;;;7.47;3.50;;;;;;;18.26;69.60;99122.19;2181463;41;20033;-83
2021/08/01 02:25:31;;;;;;;11.10;3.72;;;;;;;18.19;69.47;99135.75;2181824;41;20039;-83
2021/08/01 02:27:04;;;;;;;5.95;3.63;;;;;;;18.17;70.00;99129.75;2181832;41;20029;-83
2021/08/01 02:28:38;;;;;;;6.30;3.30;;;;;;;18.21;70.24;99131.81;2181803;41;20032;-82
2021/08/01 02:30:10;;;;;;;8.95;3.58;;;;;;;18.16;70.09;99125.38;2181696;41;20033;-83
2021/08/01 02:31:43;;;;;;;11.40;3.53;;;;;;;18.16;70.08;99131.63;2181142;41;20039;-84
2021/08/01 02:33:15;;;;;;;5.28;3.03;;;;;;;18.19;70.25;99125.78;2181483;40;20035;-85
2021/08/01 02:34:47;;;;;;;5.55;3.15;;;;;;;18.26;69.94;99122.19;2181639;41;20072;-84
2021/08/01 02:36:20;;;;;;;6.05;3.05;;;;;;;18.33;69.70;99120.25;2181940;40;20052;-83
2021/08/01 02:37:53;;;;;;;7.40;3.53;;;;;;;18.32;69.77;99121.34;2181459;41;20051;-83
2021/08/01 02:39:27;;;;;;;7.47;3.28;;;;;;;18.34;70.10;99124.63;2181474;41;20040;-83
2021/08/01 02:41:05;;;;;;;8.40;3.20;;;;;;;18.33;70.13;99122.97;2181811;41;20262;-82
2021/08/01 02:42:37;;;;;;;5.25;2.70;;;;;;;18.37;69.82;99124.22;2182052;40;20036;-85
2021/08/01 02:44:13;;;;;;;6.45;3.22;;;;;;;18.39;70.03;99127.53;2182609;41;20040;-85
2021/08/01 02:45:45;;;;;;;7.55;3.90;;;;;;;18.40;70.34;99121.88;2182203;41;20037;-82
2021/08/01 02:47:19;;;;;;;7.78;3.95;;;;;;;18.31;70.48;99130.50;2181949;41;20059;-84
2021/08/01 02:48:53;;;;;;;6.63;3.72;;;;;;;18.19;70.72;99127.63;2181710;41;20028;-83
2021/08/01 02:50:27;;;;;;;8.00;3.80;;;;;;;18.14;70.94;99133.69;2181951;41;20052;-82
2021/08/01 02:52:03;;;;;;;8.10;4.13;;;;;;;18.10;71.52;99129.78;2182221;41;20059;-81
2021/08/01 02:53:44;;;;;;;6.47;3.35;;;;;;;18.03;71.44;99129.00;2181746;40;20124;-82
2021/08/01 02:55:18;;;;;;;6.43;3.30;;;;;;;18.02;71.47;99122.75;2181453;41;20052;-81
2021/08/01 02:56:52;;;;;;;6.47;3.55;;;;;;;18.02;71.56;99125.44;2181296;41;20052;-85
2021/08/01 02:58:27;;;;;;;6.50;3.65;;;;;;;18.02;71.43;99120.03;2180956;41;20033;-82
2021/08/01 03:00:01;;;;;;;9.45;3.60;;;;;;;18.07;71.75;99135.63;2180281;41;20033;-82
2021/08/01 03:01:34;;;;;;;5.90;3.58;;;;;;;18.06;71.62;99128.53;2181535;41;20451;-82
2021/08/01 03:03:06;;;;;;;6.40;3.38;;;;;;;18.10;71.51;99137.91;2181582;40;20052;-84
2021/08/01 03:04:40;;;;;;;6.53;3.42;;;;;;;18.13;71.72;99133.94;2181269;41;20032;-83
2021/08/01 03:06:14;;;;;;;8.18;3.53;;;;;;;18.08;71.32;99138.13;2182214;41;20036;-84
2021/08/01 03:07:46;;;;;;;8.32;3.38;;;;;;;18.06;71.76;99136.66;2181615;41;20036;-83
2021/08/01 03:09:18;;;;;;;9.95;4.22;;;;;;;18.02;72.25;99135.44;2182108;41;20039;-84
2021/08/01 03:10:51;;;;;;;6.95;3.38;;;;;;;17.94;72.03;99141.91;2181818;41;20040;-83
2021/08/01 03:12:22;;;;;;;7.22;4.00;;;;;;;17.86;72.37;99137.56;2181939;40;20156;-83
2021/08/01 03:13:54;;;;;;;6.75;4.18;;;;;;;17.81;72.46;99140.06;2181383;41;20417;-84
2021/08/01 03:15:26;;;;;;;8.93;4.20;;;;;;;17.77;72.63;99141.53;2181501;41;20055;-82
2021/08/01 03:16:58;;;;;;;6.80;4.40;;;;;;;17.80;73.08;99143.81;2181531;41;20553;-83
2021/08/01 03:18:29;;;;;;;7.47;3.53;;;;;;;17.75;73.21;99144.47;2182765;41;20416;-83
2021/08/01 03:20:01;;;;;;;7.78;4.10;;;;;;;17.75;73.54;99149.06;2183571;41;20478;-85
2021/08/01 03:21:33;;;;;;;8.15;4.50;;;;;;;17.73;73.63;99151.13;2183873;41;20045;-85
2021/08/01 03:23:05;;;;;;;11.50;5.55;;;;;;;17.70;74.24;99151.56;2183269;40;20451;-86
2021/08/01 03:24:36;;;;;;;8.32;4.00;;;;;;;17.72;74.10;99150.28;2183727;41;20066;-83
2021/08/01 03:26:09;;;;;;;8.55;3.92;;;;;;;17.73;74.07;99151.94;2182670;41;20044;-83
2021/08/01 03:27:42;;;;;;;7.63;4.20;;;;;;;17.68;74.21;99150.94;2182912;41;20051;-83
2021/08/01 03:29:14;;;;;;;5.68;3.58;;;;;;;17.68;74.07;99142.81;2179235;41;20049;-85
2021/08/01 03:30:46;;;;;;;5.43;3.22;;;;;;;17.71;74.12;99143.22;2185650;41;20051;-89
2021/08/01 03:32:18;;;;;;;6.88;3.63;;;;;;;17.73;74.05;99151.13;2183742;40;20049;-84
2021/08/01 03:33:50;;;;;;;9.32;3.50;;;;;;;17.73;74.14;99140.31;2183190;41;20032;-86
2021/08/01 03:35:21;;;;;;;9.40;3.60;;;;;;;17.75;74.21;99146.34;2183768;41;20040;-83
2021/08/01 03:36:53;;;;;;;8.00;4.00;;;;;;;17.71;74.21;99142.41;2183322;41;20035;-87
2021/08/01 03:38:25;;;;;;;6.68;3.67;;;;;;;17.74;74.27;99145.50;2184383;41;20125;-84
2021/08/01 03:39:57;;;;;;;6.10;3.53;;;;;;;17.75;74.44;99149.06;2183986;41;20551;-85
2021/08/01 03:41:29;;;;;;;8.00;4.13;;;;;;;17.78;74.55;99148.59;2183403;41;20036;-85
2021/08/01 03:43:01;;;;;;;6.50;3.45;;;;;;;17.78;74.28;99143.19;2182757;40;20436;-84
2021/08/01 03:44:42;;;;;;;5.68;3.38;;;;;;;17.79;74.06;99139.47;2182491;41;20040;-82
2021/08/01 03:46:14;;;;;;;7.47;3.58;;;;;;;17.77;74.09;99146.94;2181949;41;20047;-83
2021/08/01 03:47:46;;;;;;;7.15;3.70;;;;;;;17.80;73.92;99140.31;2181518;41;20444;-84
2021/08/01 03:49:17;;;;;;;6.43;3.58;;;;;;;17.83;73.99;99148.81;2181634;41;20434;-84
2021/08/01 03:50:48;;;;;;;6.80;3.83;;;;;;;17.77;74.18;99146.94;2181236;41;20047;-83
2021/08/01 03:52:20;;;;;;;7.88;3.38;;;;;;;17.72;74.30;99160.28;2181255;40;20044;-83
2021/08/01 03:53:51;;;;;;;6.93;3.63;;;;;;;17.70;74.02;99151.56;2181514;41;20110;-83
2021/08/01 03:55:23;;;;;;;6.70;4.00;;;;;;;17.68;74.45;99153.63;2181582;41;20639;-82
2021/08/01 03:56:55;;;;;;;6.93;3.67;;;;;;;17.72;74.55;99157.56;2181112;41;20409;-82
2021/08/01 03:58:27;;;;;;;6.38;3.72;;;;;;;17.71;74.09;99153.22;2180827;41;20055;-83
2021/08/01 03:59:58;;;;;;;7.65;3.15;;;;;;;17.72;74.07;99157.56;2181091;41;20043;-84
2021/08/01 04:01:30;;;;;;;5.05;2.95;;;;;;;17.76;74.27;99156.09;2181040;41;20055;-83
2021/08/01 04:03:02;;;;;;;7.75;3.45;;;;;;;17.79;74.14;99147.56;2181117;40;20126;-83
2021/08/01 04:04:35;;;;;;;7.60;3.60;;;;;;;17.83;74.16;99161.47;2180576;41;20043;-82
2021/08/01 04:06:18;;;;;;;6.88;3.33;;;;;;;17.82;74.22;99159.81;2180627;41;20040;-83
2021/08/01 04:07:54;;;;;;;7.82;3.75;;;;;;;17.81;74.08;99156.28;2181217;41;20048;-84
2021/08/01 04:09:26;;;;;;;8.82;3.03;;;;;;;17.81;74.26;99155.44;2181153;41;20041;-83
2021/08/01 04:10:58;;;;;;;8.15;4.15;;;;;;;17.80;74.04;99157.34;2180395;41;20364;-83
2021/08/01 04:12:32;;;;;;;8.07;4.22;;;;;;;17.78;74.37;99154.00;2180642;40;20032;-83
2021/08/01 04:14:04;;;;;;;5.75;3.28;;;;;;;17.78;74.15;99154.00;2181389;41;20511;-82
2021/08/01 04:15:36;;;;;;;6.10;3.00;;;;;;;17.80;74.41;99156.53;2180894;41;20504;-83
2021/08/01 04:17:09;;;;;;;7.75;3.45;;;;;;;17.78;74.31;99154.00;2180905;41;20298;-82
2021/08/01 04:18:41;;;;;;;7.47;3.90;;;;;;;17.75;74.24;99159.88;2180613;41;20036;-83
2021/08/01 04:20:15;;;;;;;6.85;3.70;;;;;;;17.62;74.77;99155.31;2181260;41;20033;-83
2021/08/01 04:21:47;;;;;;;7.47;3.80;;;;;;;17.52;74.96;99161.16;2181617;41;20040;-83
2021/08/01 04:23:18;;;;;;;6.95;3.45;;;;;;;17.47;75.04;99161.00;2181138;40;20047;-84
2021/08/01 04:24:50;;;;;;;8.15;3.72;;;;;;;17.49;75.34;99166.16;2180962;41;20546;-83
2021/08/01 04:26:20;;;;;;;6.72;4.15;;;;;;;17.46;75.64;99160.16;2183368;41;20167;-85
2021/08/01 04:27:55;;;;;;;7.13;4.25;;;;;;;17.41;75.61;99172.63;2181569;41;20044;-84
2021/08/01 04:29:34;;;;;;;7.30;4.30;;;;;;;17.31;76.08;99170.38;2184780;41;20043;-85
2021/08/01 04:31:06;;;;;;;7.82;4.13;;;;;;;17.26;76.13;99171.00;2189753;40;20036;-85
2021/08/01 04:32:38;;;;;;;5.55;3.47;;;;;;;17.24;76.46;99181.16;2189038;40;20465;-84
2021/08/01 04:34:11;;;;;;;8.45;4.18;;;;;;;17.23;76.55;99179.50;2189264;40;20059;-84
2021/08/01 04:35:43;;;;;;;6.22;4.00;;;;;;;17.22;77.10;99177.84;2188906;40;20043;-82
2021/08/01 04:37:14;;;;;;;7.22;4.10;;;;;;;17.25;77.05;99177.44;2187666;40;20047;-84
2021/08/01 04:38:45;;;;;;;7.20;4.43;;;;;;;17.21;77.28;99181.56;2181268;41;20054;-82
2021/08/01 04:40:17;;;;;;;8.32;3.83;;;;;;;17.24;77.03;99188.47;2181997;41;20032;-83
2021/08/01 04:41:49;;;;;;;6.40;4.10;;;;;;;17.27;76.89;99191.56;2181893;41;20393;-82
2021/08/01 04:43:22;;;;;;;6.60;4.07;;;;;;;17.32;77.02;99188.22;2181566;40;20029;-84
2021/08/01 04:44:54;;;;;;;7.60;4.15;;;;;;;17.36;76.95;99186.75;2181619;41;20423;-82
2021/08/01 04:46:26;;;;;;;9.52;4.50;;;;;;;17.39;76.72;99196.31;2181581;41;20028;-82
2021/08/01 04:47:57;;;;;;;7.45;4.10;;;;;;;17.34;76.94;99193.41;2180142;41;20296;-82
2021/08/01 04:49:29;;;;;;;7.40;4.35;;;;;;;17.31;77.09;99198.19;2181839;41;20317;-84
2021/08/01 04:51:02;;;;;;;6.05;3.92;;;;;;;17.37;77.03;99195.72;2182242;41;20080;-82
2021/08/01 04:52:35;;;;;;;6.30;3.92;;;;;;;17.37;77.20;99190.31;2168518;41;20413;-83
2021/08/01 04:54:06;;;;;;;8.27;4.22;;;;;;;17.37;77.34;99193.81;2166616;41;20037;-82
2021/08/01 04:55:39;;;;;;;6.65;4.18;;;;;;;17.30;77.83;99199.22;2180816;41;20043;-83
2021/08/01 04:57:10;;;;;;;7.60;4.00;;;;;;;17.27;77.98;99196.97;2181981;41;20059;-84
2021/08/01 04:58:43;;;;;;;8.85;4.97;;;;;;;17.25;78.33;99200.91;2182251;41;20032;-82
2021/08/01 05:00:16;;;;;;;6.20;4.28;;;;;;;17.27;78.23;99196.13;2181978;41;20043;-83
2021/08/01 05:01:48;;;;;;;9.25;4.75;;;;;;;17.25;78.28;99195.50;2182024;41;20039;-83
2021/08/01 05:03:20;;;;;;;6.40;3.80;;;;;;;17.25;78.43;99203.59;2181755;40;20032;-83
2021/08/01 05:04:52;;;;;;;9.35;3.83;;;;;;;17.27;78.41;99190.72;2182012;41;20059;-84
2021/08/01 05:06:23;;;;;;;6.15;4.50;;;;;;;17.27;78.06;99202.38;2182091;41;20091;-84
2021/08/01 05:07:55;;;;;;;6.82;4.07;;;;;;;17.33;78.20;99199.84;2182424;41;20392;-83
2021/08/01 05:09:27;;;;;;;8.02;4.32;;;;;;;17.37;78.07;99193.81;2182935;41;20036;-83
2021/08/01 05:10:59;;;;;;;6.25;4.13;;;;;;;17.34;78.24;99190.72;2182878;41;20044;-83
2021/08/01 05:12:30;;;;;;;6.43;3.83;;;;;;;17.33;78.10;99198.00;2183041;40;20320;-84
2021/08/01 05:14:03;;;;;;;5.90;3.60;;;;;;;17.35;77.98;99195.09;2182372;41;20040;-85
2021/08/01 05:15:34;;;;;;;6.43;3.80;;;;;;;17.35;77.92;99198.59;2182710;41;20033;-83
2021/08/01 05:17:06;;;;;;;6.97;3.63;;;;;;;17.35;78.20;99189.69;2182596;40;20072;-85
2021/08/01 05:18:38;;;;;;;8.38;3.45;;;;;;;17.35;77.94;99195.91;2182931;41;20037;-85
2021/08/01 05:20:11;;;;;;;10.38;4.28;;;;;;;17.33;77.75;99183.66;2182950;41;20490;-84
2021/08/01 05:21:43;;;;;;;5.22;3.05;;;;;;;17.36;77.75;99188.66;2182609;41;20040;-84
2021/08/01 05:23:15;;;;;;;7.07;3.53;;;;;;;17.37;77.65;99187.59;2183046;40;20032;-83
2021/08/01 05:24:46;;;;;;;8.38;3.63;;;;;;;17.40;77.71;99197.97;2182344;41;20028;-85
2021/08/01 05:26:18;;;;;;;5.35;3.40;;;;;;;17.41;77.69;99191.53;2183015;41;20039;-85
2021/08/01 05:27:49;;;;;;;7.32;4.45;;;;;;;17.43;77.65;99189.47;2182272;41;20032;-83
2021/08/01 05:29:23;;;;;;;7.22;4.28;;;;;;;17.39;77.37;99178.25;2183013;41;20036;-82
2021/08/01 05:30:53;;;;;;;14.68;4.07;;;;;;;17.37;77.70;99184.91;2182460;41;20085;-83
2021/08/01 05:32:25;;;;;;;8.63;4.10;;;;;;;17.39;77.76;99182.78;2182179;40;20044;-85
2021/08/01 05:33:57;;;;;;;8.38;4.00;;;;;;;17.39;77.79;99175.53;2182528;41;20028;-84
2021/08/01 05:35:29;;;;;;;7.03;3.90;;;;;;;17.40;77.86;99179.91;2182654;41;20040;-83
2021/08/01 05:37:01;;;;;;;8.55;3.85;;;;;;;17.41;77.90;99186.97;2182537;41;20044;-83
2021/08/01 05:38:32;;;;;;;6.47;3.50;;;;;;;17.40;77.83;99184.47;2182190;41;20040;-83
2021/08/01 05:40:07;;;;;;;8.00;3.60;;;;;;;17.40;77.87;99184.47;2182358;41;20459;-85
2021/08/01 05:41:39;;;;;;;7.13;3.78;;;;;;;17.40;77.87;99188.00;2181570;41;20153;-83
2021/08/01 05:43:11;;;;;;;7.40;3.90;;;;;;;17.42;77.83;99187.78;2182090;40;20040;-85
2021/08/01 05:44:43;;;;;;;10.10;4.50;;;;;;;17.38;77.87;99183.88;2182053;41;20043;-82
2021/08/01 05:46:15;;;;;;;6.68;3.50;;;;;;;17.37;77.90;99195.72;2182636;41;20047;-84
2021/08/01 05:47:46;;;;;;;7.90;3.70;;;;;;;17.35;78.06;99195.91;2182170;41;20043;-84
2021/08/01 05:49:17;;;;;;;6.78;3.50;;;;;;;17.28;78.14;99198.63;2182044;41;20044;-82
2021/08/01 05:50:49;;;;;;;6.00;3.22;;;;;;;17.20;77.95;99198.81;2180567;41;20086;-83
2021/08/01 05:52:21;;;;;;;6.03;3.40;;;;;;;17.20;78.48;99206.91;2181646;40;20032;-83
2021/08/01 05:53:53;;;;;;;7.20;3.85;;;;;;;17.18;78.32;99197.38;2187084;40;20436;-84
2021/08/01 05:55:25;;;;;;;6.88;4.60;;;;;;;17.13;78.74;99200.69;2187424;40;20321;-82
2021/08/01 05:56:57;;;;;;;7.30;4.10;;;;;;;17.07;78.69;99198.84;2187092;40;20162;-82
2021/08/01 05:58:29;;;;;;;7.97;4.80;;;;;;;16.99;79.12;99195.31;2186611;40;20054;-82
2021/08/01 06:00:03;;;;;;;6.68;4.05;;;;;;;16.94;79.62;99187.00;2181669;41;20091;-83
2021/08/01 06:01:35;;;;;;;9.20;4.47;;;;;;;16.90;79.73;99191.13;2182248;41;20048;-83
2021/08/01 06:03:07;;;;;;;7.65;4.03;;;;;;;16.87;80.09;99196.09;2181231;40;20405;-83
2021/08/01 06:04:38;;;;;;;7.00;3.97;;;;;;;16.81;80.26;99192.38;2181445;41;20405;-83
2021/08/01 06:06:12;;;;;;;7.97;4.32;;;;;;;16.80;80.30;99196.91;2184833;40;20043;-81
2021/08/01 06:07:44;;;;;;;8.13;4.25;;;;;;;16.82;80.27;99204.81;2181899;41;20076;-84
2021/08/01 06:09:14;;;;;;;7.53;4.05;;;;;;;16.80;80.42;99198.81;2185185;41;20087;-84
2021/08/01 06:10:46;;;;;;;8.05;4.40;;;;;;;16.78;80.28;99198.16;2178237;41;20037;-84
2021/08/01 06:12:18;;;;;;;7.03;4.43;;;;;;;16.75;80.70;99193.19;2182777;40;20036;-83
2021/08/01 06:13:49;;;;;;;6.63;4.15;;;;;;;16.75;80.92;99193.19;2182275;41;20032;-82
2021/08/01 06:15:22;;;;;;;9.45;4.03;;;;;;;16.73;81.00;99200.63;2181888;41;20092;-82
2021/08/01 06:16:54;;;;;;;6.03;3.63;;;;;;;16.74;80.79;99200.47;2182444;41;20040;-85
2021/08/01 06:18:25;;;;;;;7.85;3.90;;;;;;;16.76;80.94;99198.38;2181363;41;20062;-83
2021/08/01 06:19:57;;;;;;;6.18;3.63;;;;;;;16.82;80.56;99197.56;2181903;41;20040;-82
2021/08/01 06:21:29;;;;;;;7.65;4.38;;;;;;;16.91;80.34;99202.75;2182261;41;20025;-84
2021/08/01 06:23:01;;;;;;;6.00;3.65;;;;;;;16.92;80.62;99194.44;2182205;40;20040;-82
2021/08/01 06:24:33;;;;;;;8.05;4.57;;;;;;;16.98;80.20;99203.59;2182348;41;20028;-83
2021/08/01 06:26:05;;;;;;;6.13;3.63;;;;;;;17.01;80.25;99208.59;2182231;41;20029;-82
2021/08/01 06:27:39;;;;;;;6.68;4.45;;;;;;;17.08;80.42;99203.22;2175167;41;20040;-83
2021/08/01 06:29:10;;;;;;;7.28;4.25;;;;;;;17.09;80.31;99210.28;2181946;41;20044;-83
2021/08/01 06:30:45;;;;;;;7.68;4.68;;;;;;;17.12;80.18;99215.25;2181944;41;20028;-84
2021/08/01 06:32:17;;;;;;;6.53;3.85;;;;;;;17.06;80.44;99207.97;2182341;40;20041;-81
2021/08/01 06:33:48;;;;;;;7.05;3.17;;;;;;;17.07;80.27;99209.66;2181117;40;20036;-82
2021/08/01 06:35:19;;;;;;;7.85;3.33;;;;;;;17.08;80.21;99208.59;2177015;41;20052;-83
2021/08/01 06:36:51;;;;;;;5.30;2.88;;;;;;;17.09;79.93;99212.97;2176936;41;20037;-83
2021/08/01 06:38:22;;;;;;;9.48;4.38;;;;;;;17.17;79.99;99210.06;2176953;41;20041;-81
2021/08/01 06:39:54;;;;;;;7.18;3.88;;;;;;;17.17;79.60;99212.75;2177254;41;20044;-82
2021/08/01 06:41:26;;;;;;;6.75;3.58;;;;;;;17.16;79.53;99219.19;2176778;41;20033;-85
2021/08/01 06:42:57;;;;;;;6.28;3.53;;;;;;;17.17;79.81;99218.16;2177013;41;20345;-83
2021/08/01 06:44:29;;;;;;;9.65;3.65;;;;;;;17.14;79.63;99213.97;2176488;41;20033;-82
2021/08/01 06:46:01;;;;;;;8.40;4.30;;;;;;;17.13;79.69;99227.69;2176833;41;20043;-84
2021/08/01 06:47:33;;;;;;;9.10;4.22;;;;;;;17.14;80.05;99221.25;2176346;41;20060;-82
2021/08/01 06:49:05;;;;;;;6.63;3.80;;;;;;;17.15;79.99;99225.63;2176287;41;20037;-84
2021/08/01 06:50:38;;;;;;;5.72;3.50;;;;;;;17.07;79.83;99233.94;2176611;41;20032;-86
2021/08/01 06:52:10;;;;;;;5.28;3.22;;;;;;;17.02;79.88;99222.91;2176237;41;20060;-82
2021/08/01 06:53:42;;;;;;;7.90;3.45;;;;;;;16.97;79.70;99229.78;2176453;41;20037;-82
2021/08/01 06:55:13;;;;;;;7.28;3.08;;;;;;;16.99;79.92;99224.16;2176096;41;20056;-83
2021/08/01 06:56:45;;;;;;;7.00;3.20;;;;;;;16.98;79.47;99225.19;2174899;41;20037;-82
2021/08/01 06:58:17;;;;;;;8.13;3.15;;;;;;;16.98;79.38;99233.31;2176098;41;20060;-82
2021/08/01 06:59:49;;;;;;;7.45;3.85;;;;;;;16.99;79.58;99233.13;2175494;41;20036;-84
2021/08/01 07:01:22;;;;;;;6.63;3.95;;;;;;;17.01;79.62;99235.59;2176073;41;20040;-84
2021/08/01 07:02:54;;;;;;;8.48;3.95;;;;;;;17.05;79.77;99230.63;2175622;41;20028;-82
2021/08/01 07:04:26;;;;;;;6.38;3.22;;;;;;;17.06;79.18;99237.69;2175695;41;20044;-82
2021/08/01 07:05:58;;;;;;;7.25;3.72;;;;;;;17.07;79.38;99239.34;2175570;41;20041;-81
2021/08/01 07:07:29;;;;;;;6.15;3.20;;;;;;;17.06;79.39;99227.69;2175935;41;20065;-82
2021/08/01 07:09:01;;;;;;;6.72;3.38;;;;;;;17.12;79.45;99220.63;2176037;41;20049;-82
2021/08/01 07:10:31;;;;;;;7.63;3.65;;;;;;;17.12;78.91;99221.47;2175438;41;20298;-82
2021/08/01 07:12:04;;;;;;;4.68;2.90;;;;;;;17.08;78.94;99225.63;2175594;41;20172;-83
2021/08/01 07:13:36;;;;;;;5.43;3.28;;;;;;;17.06;78.83;99227.69;2175497;41;20409;-84
2021/08/01 07:15:08;;;;;;;5.78;3.72;;;;;;;17.08;78.69;99232.91;2175382;41;20032;-82
2021/08/01 07:16:46;;;;;;;6.47;4.00;;;;;;;17.13;78.83;99230.41;2175681;41;20061;-82
2021/08/01 07:18:18;;;;;;;5.38;3.22;;;;;;;17.19;78.82;99229.59;2175998;41;20290;-82